Weather observations for the past three days for
Wenatchee - Pangborn Memorial Airport
Metric (Imperial)
Date Time (pdt) Wind (kph) Vis. (km) Weather Sky Cond. Temperature (ºC) Relative Humidity Wind Chill (°C) Heat Index (°C) Pressure Precipitation (cm)
Air Dwpt 6 hour altimeter (cm) sea level (mb) 1 hr 3 hr 6 hr
Max. Min.
02 16:55 NW 7 16.09 Fair CLR 27.2 3.3 27.8 21.1 21% 26 75.97 1012.0
02 15:55 Vrbl 11 16.09 Fair CLR 27.8 3.9 22% 27 76.02 1012.6
02 14:55 Vrbl 9 16.09 Fair CLR 27.2 3.9 22% 26 76.07 1013.4
02 13:55 W 15 16.09 Fair CLR 26.1 3.9 24% 26 76.1 1013.9
02 12:55 SW 13 16.09 Fair CLR 25 3.9 26% 25 76.17 1014.7
02 11:55 W 6 16.09 Fair CLR 22.8 5 32% 76.2 1015.4
02 10:55 Vrbl 9 16.09 Fair CLR 22.2 5 22.2 13.9 33% 76.23 1015.8
02 09:55 W 13 16.09 Fair CLR 20 5.6 39% 76.23 1015.6
02 08:55 W 15 16.09 Fair CLR 17.2 6.1 48% 76.23 1015.9
02 07:55 SW 11 16.09 Fair CLR 15 6.7 58% 76.23 1015.8
02 06:55 N 13 16.09 Fair CLR 14.4 6.1 58% 76.2 1015.5
02 05:55 SW 20 16.09 Mostly Cloudy BKN100 BKN120 15 5.6 54% 76.15 1014.5
02 04:55 N 7 16.09 A Few Clouds FEW110 14.4 6.1 17.2 13.9 58% 76.17 1014.9
02 03:55 SW 9 16.09 Fair CLR 14.4 6.1 58% 76.2 1015.2
02 02:55 Calm 16.09 Fair CLR 15 6.1 56% 76.15 1014.7
02 01:55 NW 17 16.09 Fair CLR 16.1 5 48% 76.15 1014.5
02 00:55 NW 7 16.09 Fair CLR 16.1 5 48% 76.15 1014.7
01 23:55 NW 6 16.09 Fair CLR 16.1 5.6 50% 76.15 1014.6
01 22:55 NE 6 16.09 Fair CLR 15.6 6.1 25 15.6 53% 76.12 1014.4
01 21:55 N 9 16.09 Fair CLR 18.3 5 42% 76.1 1014.1
01 20:55 Calm 16.09 Fair CLR 19.4 4.4 37% 76.05 1013.6
01 19:55 E 7 16.09 Fair CLR 20.6 6.1 39% 76.02 1013.2
01 18:55 E 7 16.09 Fair CLR 23.3 5 31% 76.02 1013.1
01 17:55 SE 15 16.09 Fair CLR 24.4 2.8 25% 25 76.02 1013.2
01 16:55 SE 17 16.09 Fair CLR 24.4 2.8 25 18.3 25% 25 76.05 1013.5
01 15:55 SE 17 16.09 Fair CLR 24.4 2.2 23% 25 76.1 1014.2
01 14:55 SE 11 16.09 Fair CLR 23.3 1.7 24% 76.15 1015.0
01 13:55 SE 13 G 26 16.09 Fair CLR 23.9 0.6 22% 25 76.2 1015.3
01 12:55 SE 17 16.09 Fair CLR 23.3 1.1 23% 76.25 1015.9
01 11:55 Calm 16.09 Fair CLR 20.6 3.9 33% 76.28 1016.5
01 10:55 Calm 16.09 Fair CLR 18.3 3.9 18.3 8.9 39% 76.33 1017.1
01 09:55 SW 7 16.09 Fair CLR 15.6 3.3 44% 76.35 1017.7
01 08:55 W 11 16.09 Fair CLR 12.8 2.8 51% 76.38 1018.1
01 07:55 W 19 16.09 Fair CLR 11.1 2.8 57% 76.38 1017.9
01 06:55 W 9 16.09 Fair CLR 10 2.8 61% 9 76.35 1017.5
01 05:55 W 13 16.09 Fair CLR 9.4 2.8 64% 8 76.33 1017.2
01 04:55 NW 11 16.09 Fair CLR 10.6 2.2 16.7 9.4 56% 76.3 1016.9
01 03:55 W 17 16.09 Fair CLR 10.6 2.8 59% 76.3 1017.0
01 02:55 W 17 16.09 Fair CLR 11.7 2.8 55% 76.3 1016.9
01 01:55 W 11 16.09 Fair CLR 12.8 2.8 51% 76.33 1017.1
01 00:55 NW 11 16.09 Fair CLR 12.8 2.2 49% 76.33 1017.1
30 23:55 Calm 16.09 Fair CLR 13.3 2.2 47% 76.3 1016.8
30 22:55 SW 6 16.09 Fair CLR 16.7 0.6 23.9 16.1 34% 76.3 1016.7
30 21:55 W 7 16.09 Fair CLR 17.8 0 30% 76.3 1016.9
30 20:55 W 9 16.09 Fair CLR 19.4 0.6 29% 76.28 1016.7
30 19:55 E 7 16.09 Fair CLR 20 1.7 30% 76.25 1016.3
30 18:55 E 9 16.09 Fair CLR 22.8 0 22% 76.28 1016.5
30 17:55 SE 11 16.09 Fair CLR 23.3 -1.7 19% 76.3 1016.9
30 16:55 SE 15 16.09 Fair CLR 23.9 -1.7 24.4 17.8 18% 24 76.33 1017.1
30 15:55 SE 17 16.09 Fair CLR 23.9 -1.1 19% 24 76.38 1017.8
30 14:55 S 13 16.09 Fair CLR 23.3 0.6 22% 76.43 1018.5
30 13:55 Calm 16.09 Fair CLR 22.8 2.8 27% 76.48 1019.1
30 11:55 Vrbl 7 16.09 Fair CLR 20.6 4.4 35% 76.58 1020.8
30 10:55 Calm 16.09 Fair CLR 17.8 4.4 17.8 8.9 41% 76.63 1021.6
30 09:55 Calm 16.09 Fair CLR 15 4.4 49% 76.68 1022.2
30 08:55 W 11 16.09 Fair CLR 13.3 4.4 55% 76.71 1022.6
30 07:55 NW 7 16.09 Fair CLR 11.1 4.4 64% 76.73 1022.8
30 06:55 W 19 16.09 Fair CLR 10 3.9 66% 8 76.71 1022.3
30 05:55 W 19 16.09 Fair CLR 9.4 3.9 69% 7 76.66 1021.9
30 04:55 NW 13 16.09 Fair CLR 10 3.9 15.6 9.4 66% 8 76.66 1021.9
30 03:55 NW 17 16.09 Fair CLR 11.7 4.4 61% 76.66 1021.7
30 02:55 NW 15 16.09 Fair CLR 11.1 4.4 64% 76.63 1021.6
30 01:55 NW 19 16.09 Fair CLR 12.8 4.4 57% 76.63 1021.5
30 00:55 NW 13 16.09 Fair CLR 13.9 3.9 51% 76.66 1021.6
29 23:55 E 6 16.09 Fair CLR 12.8 5 59% 76.61 1021.2
29 22:55 NE 6 16.09 Fair CLR 15 4.4 22.2 14.4 49% 76.58 1020.9
29 21:55 E 7 16.09 Fair CLR 15 5 51% 76.58 1020.9
29 20:55 E 11 16.09 Fair CLR 16.1 5 48% 76.56 1020.5
29 19:55 E 9 16.09 Fair CLR 18.3 5 42% 76.53 1020.1
29 18:55 E 11 16.09 Fair CLR 21.1 3.9 32% 76.53 1020.0
29 17:55 SE 13 16.09 Fair CLR 21.7 2.8 29% 76.53 1020.1
Date Time (pdt) Wind (kph) Vis. (km) Weather Sky Cond. Air Dwpt Max. Min. Relative Humidity Wind Chill (°C) Heat Index (°C) altimeter (cm) sea level (mb) 1 hr 3 hr 6 hr
6 hour
Temperature (ºC) Pressure Precipitation (cm)